createdAt,value
2019-05-06T00:00:08.084Z,100410.13
2019-05-06T00:02:15.350Z,100402.91
2019-05-06T00:04:24.513Z,100412.80
2019-05-06T00:06:31.648Z,100412.96
2019-05-06T00:08:39.028Z,100407.05
2019-05-06T00:10:47.083Z,100402.70
2019-05-06T00:12:54.753Z,100406.87
2019-05-06T00:15:03.997Z,100407.36
2019-05-06T00:17:11.182Z,100404.08
2019-05-06T00:19:18.580Z,100406.19
2019-05-06T00:21:25.881Z,100401.22
2019-05-06T00:23:38.280Z,100394.14
2019-05-06T00:26:13.775Z,100402.49
2019-05-06T00:28:39.970Z,100393.69
2019-05-06T00:30:48.861Z,100399.87
2019-05-06T00:32:56.184Z,100393.34
2019-05-06T00:35:04.556Z,100397.64
2019-05-06T00:37:11.860Z,100397.48
2019-05-06T00:39:26.251Z,100392.83
2019-05-06T00:41:36.323Z,100391.98
2019-05-06T00:43:43.703Z,100396.64
2019-05-06T00:45:51.135Z,100391.72
2019-05-06T00:47:58.419Z,100388.88
2019-05-06T00:50:06.835Z,100391.58
2019-05-06T00:52:14.259Z,100390.11
2019-05-06T00:54:24.843Z,100393.55
2019-05-06T00:56:33.985Z,100397.08
2019-05-06T00:58:41.243Z,100391.86
2019-05-06T01:00:48.416Z,100391.41
2019-05-06T01:02:55.609Z,100389.56
2019-05-06T01:05:04.484Z,100402.75
2019-05-06T01:07:13.907Z,100398.70
2019-05-06T01:09:23.427Z,100401.70
2019-05-06T01:11:30.608Z,100391.69
2019-05-06T01:13:43.822Z,100405.69
2019-05-06T01:15:51.269Z,100399.48
2019-05-06T01:17:58.442Z,100403.73
2019-05-06T01:20:05.923Z,100402.05
2019-05-06T01:22:14.062Z,100407.11
2019-05-06T01:24:21.331Z,100403.53
2019-05-06T01:26:28.464Z,100400.20
2019-05-06T01:28:35.742Z,100412.48
2019-05-06T01:30:44.340Z,100407.80
2019-05-06T01:32:51.754Z,100414.13
2019-05-06T01:34:58.980Z,100413.45
2019-05-06T01:37:06.387Z,100409.63
2019-05-06T01:39:34.149Z,100409.47
2019-05-06T01:41:47.822Z,100409.84
2019-05-06T01:43:55.141Z,100415.16
2019-05-06T01:46:04.590Z,100409.93
2019-05-06T01:48:11.316Z,100411.30
2019-05-06T01:50:18.799Z,100413.12
2019-05-06T01:52:25.980Z,100414.39
2019-05-06T01:54:34.409Z,100406.97
2019-05-06T01:56:44.200Z,100412.05
2019-05-06T01:58:50.939Z,100412.48
2019-05-06T02:00:58.261Z,100412.44
2019-05-06T02:03:05.618Z,100412.07
2019-05-06T02:05:13.851Z,100412.28
2019-05-06T02:07:21.269Z,100406.88
2019-05-06T02:09:28.554Z,100415.25
2019-05-06T02:11:35.855Z,100408.08
2019-05-06T02:13:44.186Z,100408.05
2019-05-06T02:15:51.712Z,100410.97
2019-05-06T02:17:58.885Z,100404.34
2019-05-06T02:20:06.786Z,100413.61
2019-05-06T02:22:43.823Z,100413.44
2019-05-06T02:24:57.488Z,100405.78
2019-05-06T02:27:05.453Z,100403.41
2019-05-06T02:29:15.289Z,100405.12
2019-05-06T02:31:40.235Z,100410.43
2019-05-06T02:33:56.153Z,100404.49
2019-05-06T02:36:19.995Z,100404.52
2019-05-06T02:38:39.179Z,100410.53
2019-05-06T02:40:37.925Z,100402.63
2019-05-06T02:42:45.227Z,100407.28
2019-05-06T02:44:53.950Z,100399.20
2019-05-06T02:47:26.772Z,100404.88
2019-05-06T02:49:39.328Z,100400.98
2019-05-06T02:51:46.575Z,100407.04
2019-05-06T02:53:54.165Z,100402.05
2019-05-06T02:56:04.197Z,100401.08
2019-05-06T02:58:10.491Z,100398.10
2019-05-06T03:00:20.039Z,100401.53
2019-05-06T03:02:41.983Z,100399.41
2019-05-06T03:04:36.180Z,100402.27
2019-05-06T03:06:44.660Z,100398.19
2019-05-06T03:08:54.103Z,100403.17
2019-05-06T03:11:03.944Z,100396.92
2019-05-06T03:13:10.220Z,100401.16
2019-05-06T03:15:17.982Z,100402.01
2019-05-06T03:17:25.475Z,100398.68
2019-05-06T03:19:34.602Z,100396.87
2019-05-06T03:22:03.658Z,100399.03
2019-05-06T03:24:38.878Z,100399.53
2019-05-06T03:26:46.088Z,100393.72
2019-05-06T03:28:53.734Z,100398.61
2019-05-06T03:31:06.373Z,100401.54
2019-05-06T03:35:33.747Z,100403.37
2019-05-06T03:37:28.442Z,100400.10
2019-05-06T03:39:35.798Z,100401.44
2019-05-06T03:41:44.040Z,100400.61
2019-05-06T03:43:54.309Z,100398.80
2019-05-06T03:46:23.225Z,100395.28
2019-05-06T03:48:33.483Z,100399.63
2019-05-06T03:50:43.867Z,100389.42
2019-05-06T03:52:56.124Z,100393.23
2019-05-06T03:55:03.586Z,100396.80
2019-05-06T03:57:09.961Z,100400.25
2019-05-06T03:59:18.458Z,100399.31
2019-05-06T04:01:25.710Z,100402.35
2019-05-06T04:03:44.202Z,100404.48
2019-05-06T04:05:43.714Z,100402.35
2019-05-06T04:07:53.028Z,100405.41
2019-05-06T04:10:03.521Z,100400.48
2019-05-06T04:12:12.707Z,100394.16
2019-05-06T04:14:23.700Z,100400.55
2019-05-06T04:16:44.098Z,100398.52
2019-05-06T04:18:58.831Z,100400.82
2019-05-06T04:21:32.973Z,100399.73
2019-05-06T04:24:08.410Z,100408.75
2019-05-06T04:26:33.383Z,100407.08
2019-05-06T04:28:43.439Z,100408.20
2019-05-06T04:30:50.527Z,100393.88
2019-05-06T04:32:57.884Z,100398.88
2019-05-06T04:35:05.432Z,100394.97
2019-05-06T04:37:14.423Z,100403.65
2019-05-06T04:39:23.402Z,100402.22
2019-05-06T04:41:34.069Z,100399.61
2019-05-06T04:43:43.616Z,100399.48
2019-05-06T04:45:49.800Z,100399.52
2019-05-06T04:47:57.460Z,100396.08
2019-05-06T04:50:05.325Z,100392.06
2019-05-06T04:52:13.867Z,100392.92
2019-05-06T04:54:26.131Z,100401.42
2019-05-06T04:56:33.243Z,100392.50
2019-05-06T04:58:42.714Z,100389.46
2019-05-06T05:00:49.398Z,100390.76
2019-05-06T05:02:56.877Z,100389.30
2019-05-06T05:05:04.559Z,100390.69
2019-05-06T05:07:12.780Z,100386.92
2019-05-06T05:09:22.884Z,100395.31
2019-05-06T05:11:48.493Z,100390.25
2019-05-06T05:14:32.916Z,100392.06
2019-05-06T05:16:49.239Z,100382.26
2019-05-06T05:18:59.908Z,100385.06
2019-05-06T05:21:07.421Z,100383.30
2019-05-06T05:23:14.853Z,100386.95
2019-05-06T05:25:23.366Z,100384.59
2019-05-06T05:27:32.797Z,100385.56
2019-05-06T05:29:42.215Z,100383.22
2019-05-06T05:31:49.028Z,100387.71
2019-05-06T05:33:56.314Z,100389.98
2019-05-06T05:36:03.749Z,100393.41
2019-05-06T05:38:13.039Z,100379.70
2019-05-06T05:40:22.444Z,100396.75
2019-05-06T05:42:43.559Z,100396.25
2019-05-06T05:44:52.745Z,100389.13
2019-05-06T05:47:00.431Z,100387.23
2019-05-06T05:49:29.862Z,100392.01
2019-05-06T05:51:37.358Z,100392.30
2019-05-06T05:53:44.723Z,100396.53
2019-05-06T05:55:52.799Z,100397.84
2019-05-06T05:58:00.082Z,100398.14
2019-05-06T06:00:08.524Z,100395.62
2019-05-06T06:02:16.264Z,100394.19
2019-05-06T06:04:24.196Z,100404.50
2019-05-06T06:06:33.190Z,100399.00
2019-05-06T06:08:42.926Z,100398.02
2019-05-06T06:10:56.166Z,100395.74
2019-05-06T06:13:03.691Z,100396.64
2019-05-06T06:15:18.945Z,100393.42
2019-05-06T06:17:57.605Z,100398.15
2019-05-06T06:20:24.507Z,100391.38
2019-05-06T06:22:33.074Z,100396.55
2019-05-06T06:24:42.874Z,100398.31
2019-05-06T06:26:52.061Z,100395.18
2019-05-06T06:28:59.511Z,100397.78
2019-05-06T06:31:16.319Z,100401.06
2019-05-06T06:33:24.065Z,100400.54
2019-05-06T06:35:37.478Z,100395.77
2019-05-06T06:37:56.836Z,100396.72
2019-05-06T06:40:04.744Z,100396.32
2019-05-06T06:42:12.727Z,100383.67
2019-05-06T06:44:23.121Z,100392.07
2019-05-06T06:46:32.348Z,100383.64
2019-05-06T06:48:39.552Z,100383.23
2019-05-06T06:50:46.845Z,100378.35
2019-05-06T06:52:54.541Z,100379.23
2019-05-06T06:55:02.639Z,100381.89
2019-05-06T06:57:17.784Z,100382.09
2019-05-06T06:59:35.249Z,100383.66
2019-05-06T07:01:54.338Z,100391.55
2019-05-06T07:04:13.370Z,100388.34
2019-05-06T07:06:37.345Z,100381.48
2019-05-06T07:08:44.656Z,100370.66
2019-05-06T07:10:52.539Z,100375.65
2019-05-06T07:13:00.042Z,100373.30
2019-05-06T07:15:08.130Z,100383.66
2019-05-06T07:17:15.318Z,100374.08
2019-05-06T07:19:29.515Z,100372.78
2019-05-06T07:21:48.431Z,100373.66
2019-05-06T07:23:55.833Z,100372.70
2019-05-06T07:26:03.332Z,100363.30
2019-05-06T07:28:13.508Z,100357.58
2019-05-06T07:30:23.012Z,100364.46
2019-05-06T07:32:32.489Z,100361.84
2019-05-06T07:34:39.450Z,100368.41
2019-05-06T07:36:46.887Z,100358.69
2019-05-06T07:38:54.280Z,100361.16
2019-05-06T07:41:16.295Z,100361.20
2019-05-06T07:43:54.342Z,100361.05
2019-05-06T07:46:06.064Z,100358.47
2019-05-06T07:48:15.217Z,100363.77
2019-05-06T07:50:22.616Z,100360.79
2019-05-06T07:52:32.537Z,100362.36
2019-05-06T07:54:42.426Z,100361.95
2019-05-06T07:56:49.589Z,100355.20
2019-05-06T07:59:08.078Z,100352.00
2019-05-06T08:01:16.079Z,100361.83
2019-05-06T08:03:23.502Z,100367.47
2019-05-06T08:05:32.413Z,100362.73
2019-05-06T08:07:42.126Z,100367.34
2019-05-06T08:09:49.647Z,100363.09
2019-05-06T08:11:56.955Z,100366.29
2019-05-06T08:14:04.702Z,100360.25
2019-05-06T08:16:13.102Z,100366.09
2019-05-06T08:18:21.953Z,100360.98
2019-05-06T08:20:38.741Z,100360.87
2019-05-06T08:23:12.595Z,100359.22
2019-05-06T08:25:22.799Z,100354.75
2019-05-06T08:27:29.242Z,100358.19
2019-05-06T08:29:36.798Z,100357.85
2019-05-06T08:31:44.216Z,100358.48
2019-05-06T08:33:52.362Z,100354.12
2019-05-06T08:36:08.890Z,100355.67
2019-05-06T08:38:12.246Z,100348.08
2019-05-06T08:40:20.084Z,100343.88
2019-05-06T08:42:27.479Z,100348.73
2019-05-06T08:44:34.804Z,100342.73
2019-05-06T08:46:43.199Z,100346.28
2019-05-06T08:48:52.540Z,100348.02
2019-05-06T08:51:09.183Z,100350.56
2019-05-06T08:53:25.154Z,100342.12
2019-05-06T08:55:35.070Z,100332.59
2019-05-06T08:57:42.517Z,100336.20
2019-05-06T08:59:49.834Z,100334.30
2019-05-06T09:01:58.817Z,100340.48
2019-05-06T09:04:12.338Z,100335.63
2019-05-06T09:06:27.037Z,100333.23
2019-05-06T09:08:26.409Z,100328.10
2019-05-06T09:10:33.866Z,100332.53
2019-05-06T09:12:42.530Z,100325.47
2019-05-06T09:14:50.019Z,100328.27
2019-05-06T09:16:57.322Z,100329.12
2019-05-06T09:19:05.345Z,100318.40
2019-05-06T09:21:12.763Z,100323.50
2019-05-06T09:23:22.494Z,100322.20
2019-05-06T09:25:29.234Z,100315.16
2019-05-06T09:28:13.637Z,100316.52
2019-05-06T09:30:57.850Z,100318.55
2019-05-06T09:33:05.315Z,100319.00
2019-05-06T09:35:13.202Z,100316.30
2019-05-06T09:37:23.567Z,100316.91
2019-05-06T09:39:32.161Z,100313.51
2019-05-06T09:41:39.090Z,100321.12
2019-05-06T09:43:46.505Z,100314.70
2019-05-06T09:45:53.912Z,100314.32
2019-05-06T09:48:13.093Z,100315.71
2019-05-06T09:50:34.812Z,100308.81
2019-05-06T09:52:42.794Z,100311.85
2019-05-06T09:54:59.355Z,100310.70
2019-05-06T09:57:12.855Z,100306.75
2019-05-06T09:59:21.596Z,100307.92
2019-05-06T10:01:29.487Z,100314.64
2019-05-06T10:03:37.644Z,100309.21
2019-05-06T10:05:44.963Z,100308.25
2019-05-06T10:07:52.550Z,100298.20
2019-05-06T10:09:59.854Z,100304.94
2019-05-06T10:12:07.355Z,100286.56
2019-05-06T10:14:14.786Z,100294.36
2019-05-06T10:16:22.244Z,100293.16
2019-05-06T10:18:29.506Z,100290.73
2019-05-06T10:20:38.968Z,100281.36
2019-05-06T10:22:46.737Z,100277.77
2019-05-06T10:24:53.985Z,100280.59
2019-05-06T10:27:02.591Z,100277.00
2019-05-06T10:29:27.656Z,100272.40
2019-05-06T10:31:43.067Z,100278.30
2019-05-06T10:34:07.776Z,100267.07
2019-05-06T10:36:15.360Z,100264.34
2019-05-06T10:38:57.727Z,100267.32
2019-05-06T10:41:10.131Z,100262.67
2019-05-06T10:44:02.988Z,100252.73
2019-05-06T10:46:13.020Z,100250.16
2019-05-06T10:48:19.504Z,100249.03
2019-05-06T10:50:28.563Z,100243.27
2019-05-06T10:52:53.477Z,100240.08
2019-05-06T10:55:03.171Z,100236.64
2019-05-06T10:57:29.759Z,100231.77
2019-05-06T10:59:37.107Z,100235.21
2019-05-06T11:01:45.902Z,100231.56
2019-05-06T11:03:53.240Z,100240.63
2019-05-06T11:06:02.453Z,100245.53
2019-05-06T11:08:09.436Z,100234.03
2019-05-06T11:10:23.997Z,100236.38
2019-05-06T11:12:26.185Z,100243.97
2019-05-06T11:14:33.990Z,100240.95
2019-05-06T11:16:41.330Z,100234.92
2019-05-06T11:18:48.678Z,100237.91
2019-05-06T11:20:56.467Z,100232.09
2019-05-06T11:23:04.169Z,100230.41
2019-05-06T11:25:12.357Z,100225.00
2019-05-06T11:27:28.927Z,100229.39
2019-05-06T11:29:33.966Z,100225.34
2019-05-06T11:32:05.657Z,100230.17
2019-05-06T11:34:52.590Z,100233.93
2019-05-06T11:37:19.613Z,100227.41
2019-05-06T11:39:26.978Z,100218.67
2019-05-06T11:41:34.276Z,100216.42
2019-05-06T11:43:42.875Z,100217.42
2019-05-06T11:45:52.121Z,100223.56
2019-05-06T11:47:59.626Z,100211.00
2019-05-06T11:50:09.357Z,100209.41
2019-05-06T11:52:16.694Z,100212.94
2019-05-06T11:54:24.646Z,100202.17
2019-05-06T11:56:32.705Z,100206.06
2019-05-06T11:58:49.232Z,100211.48
2019-05-06T12:00:57.290Z,100205.12
2019-05-06T12:03:04.921Z,100205.14
2019-05-06T12:05:12.855Z,100202.09
2019-05-06T12:07:20.181Z,100204.03
2019-05-06T12:09:27.596Z,100203.63
2019-05-06T12:11:34.946Z,100199.88
2019-05-06T12:13:42.659Z,100198.91
2019-05-06T12:15:52.184Z,100184.31
2019-05-06T12:17:59.139Z,100181.23
2019-05-06T12:20:07.975Z,100183.71
2019-05-06T12:22:15.490Z,100177.61
2019-05-06T12:24:23.002Z,100171.75
2019-05-06T12:26:32.269Z,100173.72
2019-05-06T12:28:39.540Z,100174.56
2019-05-06T12:30:47.064Z,100165.90
2019-05-06T12:33:12.982Z,100170.60
2019-05-06T12:35:20.743Z,100157.79
2019-05-06T12:37:28.311Z,100159.13
2019-05-06T12:39:35.756Z,100154.66
2019-05-06T12:42:08.345Z,100154.13
2019-05-06T12:44:15.760Z,100149.19
2019-05-06T12:46:34.677Z,100148.13
2019-05-06T12:48:44.034Z,100142.69
2019-05-06T12:50:52.517Z,100134.16
2019-05-06T12:53:00.218Z,100142.84
2019-05-06T12:55:20.371Z,100142.65
2019-05-06T12:57:17.204Z,100147.91
2019-05-06T12:59:24.999Z,100134.55
2019-05-06T13:01:33.954Z,100135.70
2019-05-06T13:03:43.230Z,100151.28
2019-05-06T13:05:52.129Z,100152.48
2019-05-06T13:07:59.571Z,100145.77
2019-05-06T13:10:07.889Z,100145.19
2019-05-06T13:12:18.423Z,100137.06
2019-05-06T13:14:25.818Z,100147.23
2019-05-06T13:16:33.577Z,100143.28
2019-05-06T13:18:46.982Z,100140.86
2019-05-06T13:20:52.208Z,100141.13
2019-05-06T13:23:08.613Z,100144.96
2019-05-06T13:25:14.602Z,100130.91
2019-05-06T13:27:23.726Z,100130.69
2019-05-06T13:29:35.594Z,100133.27
2019-05-06T13:31:43.498Z,100140.16
2019-05-06T13:33:55.698Z,100133.92
2019-05-06T13:36:03.347Z,100140.20
2019-05-06T13:38:11.734Z,100133.39
2019-05-06T13:40:19.280Z,100125.68
2019-05-06T13:42:28.175Z,100131.62
2019-05-06T13:44:35.550Z,100124.67
2019-05-06T13:46:46.706Z,100126.28
2019-05-06T13:49:13.433Z,100121.72
2019-05-06T13:51:23.363Z,100127.83
2019-05-06T13:53:39.010Z,100130.10
2019-05-06T13:55:39.864Z,100119.87
2019-05-06T13:57:47.220Z,100120.19
2019-05-06T13:59:54.820Z,100114.87
2019-05-06T14:02:18.696Z,100106.23
2019-05-06T14:04:26.245Z,100119.37
2019-05-06T14:06:33.543Z,100122.97
2019-05-06T14:08:42.290Z,100117.64
2019-05-06T14:10:59.239Z,100111.43
2019-05-06T14:12:58.775Z,100119.40
2019-05-06T14:15:07.455Z,100116.34
2019-05-06T14:17:14.852Z,100119.78
2019-05-06T14:19:22.568Z,100128.06
2019-05-06T14:21:32.249Z,100121.01
2019-05-06T14:23:38.955Z,100118.31
2019-05-06T14:26:12.432Z,100117.28
2019-05-06T14:28:37.486Z,100119.25
2019-05-06T14:31:12.736Z,100117.47
2019-05-06T14:33:23.576Z,100115.86
2019-05-06T14:35:32.534Z,100116.34
2019-05-06T14:37:41.976Z,100117.62
2019-05-06T14:39:58.121Z,100109.57
2019-05-06T14:42:03.908Z,100107.05
2019-05-06T14:44:09.512Z,100108.71
2019-05-06T14:46:17.258Z,100114.27
2019-05-06T14:48:24.573Z,100112.50
2019-05-06T14:50:44.266Z,100111.53
2019-05-06T14:52:42.637Z,100108.09
2019-05-06T14:54:56.014Z,100112.86
2019-05-06T14:57:22.841Z,100101.78
2019-05-06T14:59:32.824Z,100103.00
2019-05-06T15:01:45.082Z,100107.70
2019-05-06T15:03:52.318Z,100112.55
2019-05-06T15:05:59.197Z,100107.50
2019-05-06T15:08:06.545Z,100103.56
2019-05-06T15:10:22.258Z,100107.15
2019-05-06T15:12:23.471Z,100111.59
2019-05-06T15:14:33.103Z,100116.77
2019-05-06T15:16:42.287Z,100106.64
2019-05-06T15:18:49.363Z,100114.84
2019-05-06T15:20:56.818Z,100109.81
2019-05-06T15:23:04.641Z,100112.55
2019-05-06T15:25:13.062Z,100114.61
2019-05-06T15:27:22.640Z,100116.77
2019-05-06T15:29:29.679Z,100117.36
2019-05-06T15:31:55.840Z,100127.45
2019-05-06T15:34:05.807Z,100121.61
2019-05-06T15:36:32.678Z,100123.71
2019-05-06T15:38:41.991Z,100123.71
2019-05-06T15:40:52.246Z,100125.81
2019-05-06T15:42:58.780Z,100130.53
2019-05-06T15:45:07.299Z,100120.67
2019-05-06T15:47:14.905Z,100130.77
2019-05-06T15:49:23.400Z,100126.78
2019-05-06T15:51:36.811Z,100120.00
2019-05-06T15:53:44.619Z,100121.72
2019-05-06T15:55:53.457Z,100128.92
2019-05-06T15:58:03.253Z,100128.02
2019-05-06T16:00:13.006Z,100126.14
2019-05-06T16:02:20.511Z,100119.66
2019-05-06T16:04:27.998Z,100119.84
2019-05-06T16:06:35.247Z,100129.25
2019-05-06T16:08:42.862Z,100126.78
2019-05-06T16:10:55.776Z,100127.53
2019-05-06T16:12:59.353Z,100128.95
2019-05-06T16:15:08.143Z,100119.26
2019-05-06T16:17:15.619Z,100128.23
2019-05-06T16:19:23.116Z,100128.06
2019-05-06T16:21:32.758Z,100128.73
2019-05-06T16:23:47.636Z,100139.14
2019-05-06T16:25:55.205Z,100127.47
2019-05-06T16:28:02.560Z,100132.28
2019-05-06T16:30:14.261Z,100137.09
2019-05-06T16:32:22.037Z,100137.98
2019-05-06T16:34:29.507Z,100143.02
2019-05-06T16:36:36.995Z,100143.55
2019-05-06T16:38:44.632Z,100140.50
2019-05-06T16:41:02.185Z,100147.70
2019-05-06T16:43:02.039Z,100150.17
2019-05-06T16:45:12.600Z,100152.28
2019-05-06T16:47:38.886Z,100146.91
2019-05-06T16:49:46.569Z,100149.83
2019-05-06T16:51:54.409Z,100148.14
2019-05-06T16:54:02.227Z,100158.55
2019-05-06T16:56:37.352Z,100154.41
2019-05-06T16:58:48.409Z,100154.23
2019-05-06T17:00:55.854Z,100154.66
2019-05-06T17:03:11.652Z,100160.52
2019-05-06T17:05:38.614Z,100153.52
2019-05-06T17:07:46.731Z,100147.11
2019-05-06T17:09:54.025Z,100145.79
2019-05-06T17:12:04.419Z,100154.78
2019-05-06T17:14:12.248Z,100156.19
2019-05-06T17:16:22.093Z,100156.77
2019-05-06T17:18:29.150Z,100157.70
2019-05-06T17:20:36.566Z,100158.95
2019-05-06T17:22:44.470Z,100163.77
2019-05-06T17:24:52.869Z,100164.81
2019-05-06T17:27:02.547Z,100164.90
2019-05-06T17:29:20.182Z,100170.02
2019-05-06T17:31:52.808Z,100163.22
2019-05-06T17:34:02.483Z,100170.84
2019-05-06T17:36:12.755Z,100165.38
2019-05-06T17:38:24.156Z,100170.84
2019-05-06T17:40:32.686Z,100167.27
2019-05-06T17:42:42.292Z,100165.85
2019-05-06T17:44:49.781Z,100170.21
2019-05-06T17:47:04.978Z,100168.50
2019-05-06T17:49:16.040Z,100175.30
2019-05-06T17:51:28.873Z,100175.13
2019-05-06T17:53:36.415Z,100181.75
2019-05-06T17:55:44.051Z,100182.47
2019-05-06T17:57:52.851Z,100193.25
2019-05-06T18:00:00.561Z,100188.83
2019-05-06T18:02:12.252Z,100186.66
2019-05-06T18:04:22.600Z,100188.91
2019-05-06T18:06:29.747Z,100189.67
2019-05-06T18:08:37.495Z,100194.56
2019-05-06T18:10:45.022Z,100203.73
2019-05-06T18:12:53.195Z,100201.29
2019-05-06T18:15:02.704Z,100193.92
2019-05-06T18:17:12.290Z,100207.98
2019-05-06T18:19:19.385Z,100199.38
2019-05-06T18:21:27.044Z,100210.34
2019-05-06T18:23:34.484Z,100208.72
2019-05-06T18:25:43.252Z,100214.48
2019-05-06T18:27:52.686Z,100213.08
2019-05-06T18:30:14.978Z,100217.60
2019-05-06T18:32:09.541Z,100221.00
2019-05-06T18:34:17.110Z,100224.01
2019-05-06T18:36:24.672Z,100226.81
2019-05-06T18:38:33.010Z,100227.94
2019-05-06T18:40:42.355Z,100231.53
2019-05-06T18:42:52.372Z,100233.41
2019-05-06T18:44:59.027Z,100233.77
2019-05-06T18:47:06.763Z,100236.97
2019-05-06T18:49:14.166Z,100232.45
2019-05-06T18:51:22.401Z,100231.69
2019-05-06T18:53:32.597Z,100236.40
2019-05-06T18:55:41.681Z,100236.19
2019-05-06T18:57:49.194Z,100235.80
2019-05-06T18:59:56.651Z,100240.31
2019-05-06T19:02:04.343Z,100242.94
2019-05-06T19:04:22.460Z,100240.09
2019-05-06T19:06:29.428Z,100240.94
2019-05-06T19:08:48.438Z,100249.52
2019-05-06T19:10:56.075Z,100251.20
2019-05-06T19:13:03.845Z,100260.02
2019-05-06T19:15:12.604Z,100258.60
2019-05-06T19:17:22.393Z,100256.59
2019-05-06T19:19:34.208Z,100252.64
2019-05-06T19:21:39.332Z,100245.75
2019-05-06T19:23:47.125Z,100250.55
2019-05-06T19:25:55.022Z,100254.63
2019-05-06T19:28:02.657Z,100258.60
2019-05-06T19:30:12.845Z,100257.38
2019-05-06T19:32:19.874Z,100261.88
2019-05-06T19:34:27.735Z,100268.80
2019-05-06T19:36:35.316Z,100275.33
2019-05-06T19:38:42.915Z,100272.21
2019-05-06T19:40:52.116Z,100267.13
2019-05-06T19:42:59.589Z,100263.93
2019-05-06T19:45:08.846Z,100261.66
2019-05-06T19:47:16.222Z,100262.42
2019-05-06T19:49:23.958Z,100257.70
2019-05-06T19:51:32.993Z,100264.20
2019-05-06T19:53:42.729Z,100266.02
2019-05-06T19:55:50.153Z,100273.21
2019-05-06T19:57:57.932Z,100266.54
2019-05-06T20:00:05.749Z,100273.36
2019-05-06T20:02:16.588Z,100267.80
2019-05-06T20:04:24.641Z,100269.52
2019-05-06T20:06:56.906Z,100276.20
2019-05-06T20:09:22.595Z,100271.77
2019-05-06T20:11:37.494Z,100280.88
2019-05-06T20:13:44.840Z,100273.08
2019-05-06T20:15:52.246Z,100275.50
2019-05-06T20:17:59.581Z,100277.22
2019-05-06T20:20:07.317Z,100274.91
2019-05-06T20:22:14.658Z,100275.28
2019-05-06T20:24:22.712Z,100274.47
2019-05-06T20:26:32.430Z,100276.27
2019-05-06T20:28:40.179Z,100270.70
2019-05-06T20:30:47.612Z,100273.05
2019-05-06T20:32:55.489Z,100269.64
2019-05-06T20:35:06.097Z,100268.31
2019-05-06T20:37:12.947Z,100262.42
2019-05-06T20:39:22.804Z,100272.38
2019-05-06T20:41:29.800Z,100271.38
2019-05-06T20:43:37.614Z,100277.97
2019-05-06T20:45:44.997Z,100280.61
2019-05-06T20:47:52.639Z,100281.55
2019-05-06T20:50:02.348Z,100288.27
2019-05-06T20:52:09.733Z,100281.78
2019-05-06T20:54:17.396Z,100277.42
2019-05-06T20:56:24.970Z,100281.16
2019-05-06T20:58:32.845Z,100286.28
2019-05-06T21:00:42.709Z,100274.64
2019-05-06T21:02:49.733Z,100275.02
2019-05-06T21:04:57.211Z,100277.05
2019-05-06T21:07:04.540Z,100268.65
2019-05-06T21:09:12.573Z,100283.24
2019-05-06T21:11:26.485Z,100272.55
2019-05-06T21:13:33.070Z,100273.80
2019-05-06T21:15:39.523Z,100273.25
2019-05-06T21:17:47.548Z,100281.16
2019-05-06T21:19:55.028Z,100282.88
2019-05-06T21:22:02.429Z,100278.70
2019-05-06T21:24:09.808Z,100274.02
2019-05-06T21:26:17.188Z,100276.83
2019-05-06T21:28:24.771Z,100279.61
2019-05-06T21:30:32.431Z,100288.06
2019-05-06T21:32:42.563Z,100282.49
2019-05-06T21:34:49.105Z,100281.55
2019-05-06T21:36:56.419Z,100281.17
2019-05-06T21:39:03.811Z,100279.61
2019-05-06T21:41:12.363Z,100277.60
2019-05-06T21:43:19.869Z,100278.52
2019-05-06T21:45:27.209Z,100271.06
2019-05-06T21:47:34.537Z,100263.16
2019-05-06T21:49:42.266Z,100256.56
2019-05-06T21:51:49.642Z,100249.80
2019-05-06T21:53:57.074Z,100255.07
2019-05-06T21:56:04.470Z,100248.48
2019-05-06T21:58:12.568Z,100243.62
2019-05-06T22:00:23.390Z,100252.16
2019-05-06T22:02:32.696Z,100258.92
2019-05-06T22:04:40.017Z,100258.20
2019-05-06T22:06:47.376Z,100263.70
2019-05-06T22:08:54.609Z,100265.09
2019-05-06T22:11:02.942Z,100260.98
2019-05-06T22:13:12.546Z,100270.28
2019-05-06T22:15:19.840Z,100263.78
2019-05-06T22:17:27.136Z,100269.90
2019-05-06T22:19:34.893Z,100261.40
2019-05-06T22:21:58.954Z,100256.74
2019-05-06T22:24:07.389Z,100261.01
2019-05-06T22:26:16.326Z,100264.66
2019-05-06T22:28:23.921Z,100259.69
2019-05-06T22:30:32.874Z,100264.66
2019-05-06T22:32:46.728Z,100261.19
2019-05-06T22:34:54.079Z,100261.49
2019-05-06T22:37:03.330Z,100258.55
2019-05-06T22:39:12.030Z,100266.87
2019-05-06T22:41:19.561Z,100262.58
2019-05-06T22:43:26.935Z,100260.05
2019-05-06T22:45:34.281Z,100257.79
2019-05-06T22:47:42.187Z,100257.48
2019-05-06T22:49:49.649Z,100259.04
2019-05-06T22:51:57.054Z,100258.50
2019-05-06T22:54:04.290Z,100258.50
2019-05-06T22:56:14.285Z,100256.17
2019-05-06T22:58:22.805Z,100256.95
2019-05-06T23:00:33.238Z,100260.29
2019-05-06T23:02:47.891Z,100267.00
2019-05-06T23:04:57.670Z,100268.55
2019-05-06T23:07:05.011Z,100269.16
2019-05-06T23:09:12.451Z,100274.42
2019-05-06T23:11:22.020Z,100270.87
2019-05-06T23:13:29.430Z,100279.80
2019-05-06T23:15:36.824Z,100271.79
2019-05-06T23:17:44.137Z,100275.66
2019-05-06T23:19:52.794Z,100281.70
2019-05-06T23:22:03.992Z,100279.98
2019-05-06T23:24:09.174Z,100279.45
2019-05-06T23:26:22.838Z,100285.58
2019-05-06T23:28:30.240Z,100289.50
2019-05-06T23:30:37.571Z,100282.70
2019-05-06T23:32:44.896Z,100294.34
2019-05-06T23:34:52.441Z,100287.21
2019-05-06T23:37:26.092Z,100291.16
2019-05-06T23:40:39.231Z,100293.77
2019-05-06T23:43:42.486Z,100300.59
2019-05-06T23:46:43.259Z,100296.83
2019-05-06T23:49:44.353Z,100297.77
2019-05-06T23:52:45.501Z,100302.90
2019-05-06T23:55:46.370Z,100300.93
2019-05-06T23:57:52.631Z,100303.88
